Station Historical Data
Daily Summary for January 10, 2018 Units:  English    Metric   Both
« Previous Day
Next Day »
Daily Weekly Monthly Yearly Custom
  High: Low: Average:
Temperature: 48.6 °F 17.2 °F 40.6 °F
Dew Point: 40.4 °F 12.6 °F 32 °F
Humidity: 89% 43% 72%
Wind Speed: 10.0mph 0.0mph 3.6mph
Wind Gust: 15.0mph - -
Wind- - South
Pressure: 30.41 in 30.06 in -
Precipitation: 0.00 in    
Historical Graphs
 
 
Tabular Data for January 10, 2018
Time Temperature Dew Point Pressure Wind Wind Speed Wind Gust Humidity Rainfall Rate (Hourly)
00:00 21.5 °F 15.7 °F 30.40 in Calm     78% 0.00 in
00:25 20.3 °F 14.5 °F 30.41 in Calm     78% 0.00 in
00:45 19.5 °F 14.0 °F 30.41 in Calm     79% 0.00 in
01:05 18.8 °F 13.4 °F 30.40 in Calm     79% 0.00 in
02:20 17.5 °F 12.9 °F 30.41 in Calm     82% 0.00 in
02:29 17.4 °F 12.8 °F 30.41 in Calm     82% 0.00 in
02:40 17.2 °F 12.6 °F 30.41 in Calm     82% 0.00 in
05:45 17.2 °F 13.5 °F 30.35 in Calm     85% 0.00 in
06:50 17.5 °F 14.0 °F 30.33 in ESE 1.0 mph 4.0 mph 86% 0.00 in
07:05 17.7 °F 14.2 °F 30.32 in Calm   3.0 mph 86% 0.00 in
07:20 18.0 °F 14.5 °F 30.31 in SE 1.0 mph 3.0 mph 86% 0.00 in
08:59 22.7 °F 18.9 °F 30.29 in SE 1.0 mph 4.0 mph 85% 0.00 in
09:24 25.6 °F 19.7 °F 30.28 in SE 2.0 mph 7.0 mph 78% 0.00 in
09:29 26.2 °F 20.0 °F 30.28 in SE 2.0 mph 7.0 mph 77% 0.00 in
09:34 26.7 °F 20.1 °F 30.28 in SE 2.0 mph 5.0 mph 76% 0.00 in
09:39 27.4 °F 20.5 °F 30.28 in ESE 2.0 mph 5.0 mph 75% 0.00 in
09:44 28.0 °F 20.8 °F 30.28 in Calm   2.0 mph 74% 0.00 in
09:49 28.3 °F 20.7 °F 30.28 in SE 2.0 mph 4.0 mph 73% 0.00 in
09:54 28.7 °F 20.8 °F 30.28 in SE 1.0 mph 4.0 mph 72% 0.00 in
09:59 29.3 °F 21.1 °F 30.28 in SE 2.0 mph 3.0 mph 71% 0.00 in
10:04 29.5 °F 20.9 °F 30.29 in SE 3.0 mph 5.0 mph 70% 0.00 in
10:09 29.7 °F 21.1 °F 30.29 in SE 2.0 mph 4.0 mph 70% 0.00 in
10:14 30.2 °F 21.2 °F 30.29 in SE 1.0 mph 4.0 mph 69% 0.00 in
10:19 30.6 °F 21.3 °F 30.28 in SE 2.0 mph 5.0 mph 68% 0.00 in
10:29 31.4 °F 21.7 °F 30.28 in SE 2.0 mph 4.0 mph 67% 0.00 in
10:34 32.0 °F 21.9 °F 30.28 in SE 1.0 mph 4.0 mph 66% 0.00 in
10:39 32.4 °F 22.3 °F 30.28 in Calm   2.0 mph 66% 0.00 in
10:44 33.0 °F 22.5 °F 30.27 in SE 1.0 mph 2.0 mph 65% 0.00 in
10:49 32.8 °F 22.3 °F 30.27 in SE 1.0 mph 2.0 mph 65% 0.00 in
10:54 33.3 °F 22.4 °F 30.27 in SE 2.0 mph 3.0 mph 64% 0.00 in
10:59 33.5 °F 22.2 °F 30.27 in SE 1.0 mph 3.0 mph 63% 0.00 in
11:04 34.3 °F 22.6 °F 30.27 in Calm   2.0 mph 62% 0.00 in
11:09 34.2 °F 22.5 °F 30.26 in Calm   2.0 mph 62% 0.00 in
11:14 34.3 °F 22.6 °F 30.26 in Calm   1.0 mph 62% 0.00 in
11:19 34.8 °F 23.1 °F 30.26 in Calm     62% 0.00 in
11:24 36.2 °F 23.2 °F 30.26 in Calm   2.0 mph 59% 0.00 in
11:29 36.7 °F 23.3 °F 30.25 in SE 1.0 mph 4.0 mph 58% 0.00 in
11:34 36.7 °F 23.3 °F 30.25 in SE 1.0 mph 4.0 mph 58% 0.00 in
11:39 36.8 °F 23.0 °F 30.24 in SE 1.0 mph 3.0 mph 57% 0.00 in
11:44 37.3 °F 24.3 °F 30.24 in East 2.0 mph 5.0 mph 59% 0.00 in
11:49 37.3 °F 23.9 °F 30.22 in East 2.0 mph 5.0 mph 58% 0.00 in
11:54 38.4 °F 24.9 °F 30.21 in East 2.0 mph 5.0 mph 58% 0.01 in
11:59 38.9 °F 24.1 °F 30.20 in ESE 2.0 mph 5.0 mph 55% 0.01 in
12:04 39.0 °F 24.6 °F 30.20 in East 2.0 mph 5.0 mph 56% 0.01 in
12:10 39.1 °F 25.6 °F 30.19 in East 2.0 mph 5.0 mph 58% 0.01 in
12:19 40.6 °F 25.2 °F 30.18 in East 1.0 mph 5.0 mph 54% 0.01 in
12:24 40.9 °F 26.0 °F 30.18 in East 1.0 mph 2.0 mph 55% 0.03 in
12:29 41.6 °F 25.7 °F 30.18 in East 1.0 mph 2.0 mph 53% 0.03 in
12:34 42.5 °F 26.1 °F 30.18 in Calm   5.0 mph 52% 0.04 in
12:39 43.0 °F 26.1 °F 30.18 in East 1.0 mph 5.0 mph 51% 0.04 in
12:44 43.4 °F 26.0 °F 30.18 in Calm   2.0 mph 50% 0.05 in
12:49 43.9 °F 26.0 °F 30.18 in ESE 1.0 mph 5.0 mph 49% 0.06 in
12:54 44.6 °F 26.1 °F 30.17 in ESE 1.0 mph 5.0 mph 48% 0.05 in
12:59 45.1 °F 26.1 °F 30.17 in SSE 2.0 mph 6.0 mph 47% 0.06 in
13:04 45.6 °F 26.0 °F 30.17 in South 2.0 mph 4.0 mph 46% 0.07 in
13:14 46.5 °F 26.3 °F 30.16 in South 2.0 mph 5.0 mph 45% 0.09 in
13:19 46.9 °F 25.5 °F 30.16 in South 5.0 mph 9.0 mph 43% 0.09 in
13:24 46.4 °F 25.6 °F 30.15 in South 3.0 mph 7.0 mph 44% 0.08 in
13:29 45.9 °F 26.3 °F 30.14 in South 5.0 mph 6.0 mph 46% 0.09 in
13:34 45.7 °F 26.6 °F 30.14 in SSW 3.0 mph 7.0 mph 47% 0.08 in
13:39 45.6 °F 27.0 °F 30.14 in SSW 2.0 mph 6.0 mph 48% 0.09 in
13:44 45.6 °F 27.5 °F 30.14 in SSW 2.0 mph 7.0 mph 49% 0.08 in
13:49 45.6 °F 28.0 °F 30.13 in SSW 2.0 mph 7.0 mph 50% 0.07 in
13:54 45.8 °F 28.2 °F 30.13 in South 2.0 mph 5.0 mph 50% 0.08 in
14:04 45.7 °F 29.1 °F 30.12 in SSW 2.0 mph 6.0 mph 52% 0.07 in
14:09 45.7 °F 29.5 °F 30.12 in South 2.0 mph 6.0 mph 53% 0.06 in
14:14 45.8 °F 30.5 °F 30.12 in SSW 3.0 mph 8.0 mph 55% 0.06 in
14:19 45.6 °F 30.3 °F 30.12 in SSW 3.0 mph 8.0 mph 55% 0.06 in
14:24 45.3 °F 30.5 °F 30.12 in SSW 2.0 mph 3.0 mph 56% 0.05 in
14:29 45.2 °F 30.9 °F 30.12 in South 2.0 mph 5.0 mph 57% 0.05 in
14:34 45.3 °F 31.4 °F 30.12 in South 3.0 mph 4.0 mph 58% 0.05 in
14:39 45.1 °F 31.6 °F 30.11 in Calm   5.0 mph 59% 0.04 in
14:44 45.1 °F 32.0 °F 30.11 in South 2.0 mph 5.0 mph 60% 0.05 in
14:49 45.1 °F 32.8 °F 30.11 in South 3.0 mph 4.0 mph 62% 0.05 in
14:59 45.5 °F 34.8 °F 30.11 in South 3.0 mph 10.0 mph 66% 0.04 in
15:04 45.6 °F 35.3 °F 30.11 in South 4.0 mph 7.0 mph 67% 0.04 in
15:14 45.6 °F 36.7 °F 30.11 in South 4.0 mph 11.0 mph 71% 0.03 in
15:19 45.5 °F 36.6 °F 30.11 in South 4.0 mph 11.0 mph 71% 0.04 in
15:24 45.4 °F 37.2 °F 30.11 in South 6.0 mph 10.0 mph 73% 0.04 in
15:29 45.3 °F 37.8 °F 30.11 in SSW 5.0 mph 9.0 mph 75% 0.03 in
15:34 45.1 °F 38.0 °F 30.11 in SSW 5.0 mph 9.0 mph 76% 0.04 in
15:39 45.0 °F 38.2 °F 30.11 in SSW 6.0 mph 8.0 mph 77% 0.04 in
15:44 44.9 °F 38.1 °F 30.10 in South 5.0 mph 9.0 mph 77% 0.04 in
15:49 44.8 °F 38.4 °F 30.10 in SSW 2.0 mph 12.0 mph 78% 0.04 in
15:54 44.2 °F 38.4 °F 30.10 in South 4.0 mph 10.0 mph 80% 0.05 in
15:59 43.8 °F 38.7 °F 30.10 in SSW 7.0 mph 8.0 mph 82% 0.06 in
16:04 43.5 °F 38.7 °F 30.11 in South 4.0 mph 8.0 mph 83% 0.07 in
16:09 43.3 °F 39.1 °F 30.10 in South 3.0 mph 11.0 mph 85% 0.07 in
16:14 43.1 °F 39.2 °F 30.11 in South 2.0 mph 11.0 mph 86% 0.08 in
16:24 42.8 °F 39.2 °F 30.10 in South 5.0 mph 11.0 mph 87% 0.08 in
16:29 42.7 °F 39.1 °F 30.09 in SSE 3.0 mph 9.0 mph 87% 0.09 in
16:34 42.7 °F 39.4 °F 30.09 in SSE 5.0 mph 7.0 mph 88% 0.08 in
16:39 42.6 °F 39.3 °F 30.09 in SSE 7.0 mph 8.0 mph 88% 0.08 in
16:44 42.7 °F 39.7 °F 30.09 in South 4.0 mph 10.0 mph 89% 0.07 in
16:54 42.7 °F 39.7 °F 30.09 in South 5.0 mph 11.0 mph 89% 0.07 in
16:59 42.8 °F 39.8 °F 30.09 in South 8.0 mph 11.0 mph 89% 0.06 in
17:04 42.9 °F 39.9 °F 30.09 in South 4.0 mph 9.0 mph 89% 0.04 in
17:09 42.8 °F 39.8 °F 30.09 in South 4.0 mph 7.0 mph 89% 0.04 in
17:14 42.9 °F 39.9 °F 30.09 in South 4.0 mph 9.0 mph 89% 0.04 in
17:19 42.9 °F 39.9 °F 30.08 in South 5.0 mph 9.0 mph 89% 0.03 in
17:24 43.0 °F 40.0 °F 30.08 in South 4.0 mph 8.0 mph 89% 0.03 in
17:29 43.1 °F 40.1 °F 30.08 in South 4.0 mph 8.0 mph 89% 0.02 in
17:34 43.2 °F 40.2 °F 30.08 in South 5.0 mph 9.0 mph 89% 0.02 in
17:39 43.4 °F 40.1 °F 30.08 in South 5.0 mph 11.0 mph 88% 0.02 in
17:49 43.8 °F 40.2 °F 30.08 in SSW 6.0 mph 11.0 mph 87% 0.02 in
17:54 44.0 °F 40.4 °F 30.07 in South 3.0 mph 12.0 mph 87% 0.02 in
17:59 44.3 °F 40.4 °F 30.08 in South 5.0 mph 12.0 mph 86% 0.02 in
18:09 44.3 °F 40.1 °F 30.08 in SSW 4.0 mph 11.0 mph 85% 0.02 in
18:14 44.0 °F 39.5 °F 30.08 in SSE 6.0 mph 11.0 mph 84% 0.01 in
18:19 44.0 °F 39.8 °F 30.07 in SSE 5.0 mph 9.0 mph 85% 0.01 in
18:24 43.8 °F 39.3 °F 30.08 in South 5.0 mph 10.0 mph 84% 0.01 in
18:29 43.7 °F 39.2 °F 30.08 in South 5.0 mph 10.0 mph 84% 0.01 in
18:34 43.7 °F 39.2 °F 30.08 in South 5.0 mph 8.0 mph 84% 0.01 in
18:44 43.8 °F 39.3 °F 30.08 in South 5.0 mph 7.0 mph 84% 0.00 in
18:49 43.9 °F 39.4 °F 30.08 in SSW 8.0 mph 8.0 mph 84% 0.00 in
18:59 44.0 °F 39.2 °F 30.08 in South 4.0 mph 9.0 mph 83% 0.00 in
19:09 44.0 °F 39.2 °F 30.08 in SSW 6.0 mph 8.0 mph 83% 0.00 in
19:14 44.0 °F 39.2 °F 30.08 in South 6.0 mph 8.0 mph 83% 0.01 in
19:19 44.1 °F 39.0 °F 30.08 in South 6.0 mph 9.0 mph 82% 0.01 in
19:24 44.0 °F 38.9 °F 30.08 in South 7.0 mph 8.0 mph 82% 0.01 in
19:29 44.1 °F 39.0 °F 30.08 in South 4.0 mph 9.0 mph 82% 0.01 in
19:39 44.4 °F 39.2 °F 30.08 in South 5.0 mph 10.0 mph 82% 0.01 in
19:44 44.4 °F 39.2 °F 30.08 in South 5.0 mph 10.0 mph 82% 0.01 in
19:49 44.5 °F 39.3 °F 30.08 in South 6.0 mph 11.0 mph 82% 0.01 in
19:54 44.5 °F 39.0 °F 30.08 in South 5.0 mph 8.0 mph 81% 0.01 in
19:59 44.4 °F 38.9 °F 30.08 in SSE 8.0 mph 9.0 mph 81% 0.01 in
20:04 44.4 °F 38.9 °F 30.08 in South 5.0 mph 9.0 mph 81% 0.01 in
20:09 44.3 °F 38.8 °F 30.08 in South 4.0 mph 8.0 mph 81% 0.01 in
20:14 44.3 °F 38.8 °F 30.08 in South 5.0 mph 9.0 mph 81% 0.00 in
20:19 44.4 °F 38.9 °F 30.07 in SSW 3.0 mph 11.0 mph 81% 0.00 in
20:24 44.5 °F 39.0 °F 30.08 in South 5.0 mph 11.0 mph 81% 0.00 in
20:29 44.7 °F 38.9 °F 30.08 in South 10.0 mph 12.0 mph 80% 0.00 in
20:34 44.8 °F 39.0 °F 30.07 in South 6.0 mph 12.0 mph 80% 0.00 in
20:39 44.8 °F 39.0 °F 30.08 in South 6.0 mph 10.0 mph 80% 0.00 in
20:44 44.9 °F 38.8 °F 30.08 in South 6.0 mph 13.0 mph 79% 0.00 in
20:49 44.9 °F 38.8 °F 30.08 in South 6.0 mph 13.0 mph 79% 0.00 in
20:54 45.0 °F 38.6 °F 30.08 in South 6.0 mph 12.0 mph 78% 0.00 in
20:55 45.0 °F 38.6 °F 30.08 in South 3.0 mph 12.0 mph 78% 0.00 in
21:09 44.8 °F 38.4 °F 30.08 in South 5.0 mph 11.0 mph 78% 0.00 in
21:14 44.7 °F 38.3 °F 30.09 in South 3.0 mph 7.0 mph 78% 0.00 in
21:15 44.7 °F 38.3 °F 30.09 in South 5.0 mph 11.0 mph 78% 0.00 in
21:24 45.2 °F 38.7 °F 30.08 in SSW 4.0 mph 12.0 mph 78% 0.00 in
21:29 45.4 °F 38.6 °F 30.08 in SSE 6.0 mph 11.0 mph 77% 0.00 in
21:34 45.4 °F 38.6 °F 30.08 in SSW 7.0 mph 11.0 mph 77% 0.00 in
21:39 45.4 °F 38.3 °F 30.08 in SSE 8.0 mph 14.0 mph 76% 0.00 in
21:44 45.4 °F 38.3 °F 30.08 in South 3.0 mph 9.0 mph 76% 0.00 in
21:49 45.3 °F 38.2 °F 30.08 in South 6.0 mph 10.0 mph 76% 0.00 in
21:54 45.2 °F 38.1 °F 30.08 in South 5.0 mph 14.0 mph 76% 0.00 in
21:59 45.4 °F 38.3 °F 30.08 in South 5.0 mph 14.0 mph 76% 0.00 in
22:09 45.6 °F 38.5 °F 30.08 in South 5.0 mph 13.0 mph 76% 0.00 in
22:14 45.6 °F 38.5 °F 30.08 in South 5.0 mph 12.0 mph 76% 0.00 in
22:19 45.6 °F 38.5 °F 30.08 in South 5.0 mph 8.0 mph 76% 0.00 in
22:24 45.6 °F 38.5 °F 30.08 in South 7.0 mph 12.0 mph 76% 0.00 in
22:29 45.6 °F 38.5 °F 30.08 in South 6.0 mph 12.0 mph 76% 0.00 in
22:34 45.7 °F 38.6 °F 30.08 in SSW 7.0 mph 13.0 mph 76% 0.00 in
22:39 45.8 °F 38.3 °F 30.08 in South 6.0 mph 11.0 mph 75% 0.00 in
22:44 45.8 °F 38.3 °F 30.08 in South 6.0 mph 12.0 mph 75% 0.00 in
22:49 45.8 °F 38.3 °F 30.08 in South 5.0 mph 11.0 mph 75% 0.00 in
22:54 45.8 °F 38.3 °F 30.08 in South 4.0 mph 12.0 mph 75% 0.00 in
22:59 45.8 °F 38.0 °F 30.08 in South 5.0 mph 12.0 mph 74% 0.00 in
23:04 46.1 °F 38.3 °F 30.07 in South 5.0 mph 11.0 mph 74% 0.00 in
23:09 46.0 °F 38.2 °F 30.07 in South 5.0 mph 11.0 mph 74% 0.00 in
23:14 46.3 °F 38.5 °F 30.07 in South 5.0 mph 10.0 mph 74% 0.00 in
23:24 46.5 °F 38.3 °F 30.07 in SSW 7.0 mph 13.0 mph 73% 0.00 in
23:29 46.6 °F 38.4 °F 30.07 in South 6.0 mph 13.0 mph 73% 0.00 in
23:34 46.9 °F 38.7 °F 30.07 in South 9.0 mph 14.0 mph 73% 0.00 in
23:39 47.0 °F 38.8 °F 30.07 in South 6.0 mph 14.0 mph 73% 0.00 in
23:44 47.3 °F 39.1 °F 30.07 in SSW 7.0 mph 13.0 mph 73% 0.00 in
23:49 47.8 °F 39.2 °F 30.06 in South 4.0 mph 14.0 mph 72% 0.00 in
23:54 48.3 °F 39.3 °F 30.06 in South 7.0 mph 14.0 mph 71% 0.00 in
23:59 48.6 °F 39.3 °F 30.06 in South 8.0 mph 15.0 mph 70% 0.00 in
Buffalo, New York, USA
Compliments of Weather Underground - 1.75 mb